sensor_id;sensor_type;location;lat;lon;timestamp;temperature;humidity
38684;DHT22;24910;53.248;-6.134;2023-03-01T00:02:08;8.80;82.00
38684;DHT22;24910;53.248;-6.134;2023-03-01T00:04:37;8.80;82.30
38684;DHT22;24910;53.248;-6.134;2023-03-01T00:07:06;8.80;82.40
38684;DHT22;24910;53.248;-6.134;2023-03-01T00:09:36;8.80;82.30
38684;DHT22;24910;53.248;-6.134;2023-03-01T00:12:06;8.80;82.10
38684;DHT22;24910;53.248;-6.134;2023-03-01T00:14:35;8.90;81.90
38684;DHT22;24910;53.248;-6.134;2023-03-01T00:17:04;8.90;81.60
38684;DHT22;24910;53.248;-6.134;2023-03-01T00:19:35;8.90;81.20
38684;DHT22;24910;53.248;-6.134;2023-03-01T00:22:04;8.90;80.90
38684;DHT22;24910;53.248;-6.134;2023-03-01T00:24:33;8.90;80.50
38684;DHT22;24910;53.248;-6.134;2023-03-01T00:27:02;8.90;80.40
38684;DHT22;24910;53.248;-6.134;2023-03-01T00:29:31;8.90;80.30
38684;DHT22;24910;53.248;-6.134;2023-03-01T00:32:01;8.90;80.10
38684;DHT22;24910;53.248;-6.134;2023-03-01T00:34:30;9.00;79.80
38684;DHT22;24910;53.248;-6.134;2023-03-01T00:37:00;9.00;79.40
38684;DHT22;24910;53.248;-6.134;2023-03-01T00:39:32;9.00;79.30
38684;DHT22;24910;53.248;-6.134;2023-03-01T00:42:02;9.00;79.70
38684;DHT22;24910;53.248;-6.134;2023-03-01T00:44:32;9.10;80.20
38684;DHT22;24910;53.248;-6.134;2023-03-01T00:47:01;9.10;80.50
38684;DHT22;24910;53.248;-6.134;2023-03-01T00:49:31;9.10;80.90
38684;DHT22;24910;53.248;-6.134;2023-03-01T00:52:02;9.10;81.30
38684;DHT22;24910;53.248;-6.134;2023-03-01T00:54:31;9.00;81.90
38684;DHT22;24910;53.248;-6.134;2023-03-01T00:57:00;9.00;82.10
38684;DHT22;24910;53.248;-6.134;2023-03-01T00:59:29;9.00;82.10
38684;DHT22;24910;53.248;-6.134;2023-03-01T01:01:59;9.00;82.20
38684;DHT22;24910;53.248;-6.134;2023-03-01T01:04:28;9.00;82.10
38684;DHT22;24910;53.248;-6.134;2023-03-01T01:06:57;8.90;81.90
38684;DHT22;24910;53.248;-6.134;2023-03-01T01:09:28;8.90;81.50
38684;DHT22;24910;53.248;-6.134;2023-03-01T01:11:57;8.90;80.60
38684;DHT22;24910;53.248;-6.134;2023-03-01T01:14:26;8.90;79.60
38684;DHT22;24910;53.248;-6.134;2023-03-01T01:16:55;8.90;78.70
38684;DHT22;24910;53.248;-6.134;2023-03-01T01:19:25;8.90;78.20
38684;DHT22;24910;53.248;-6.134;2023-03-01T01:21:55;8.90;77.70
38684;DHT22;24910;53.248;-6.134;2023-03-01T01:24:24;8.90;77.40
38684;DHT22;24910;53.248;-6.134;2023-03-01T01:26:55;9.00;77.00
38684;DHT22;24910;53.248;-6.134;2023-03-01T01:29:24;9.00;76.80
38684;DHT22;24910;53.248;-6.134;2023-03-01T01:31:53;9.00;76.60
38684;DHT22;24910;53.248;-6.134;2023-03-01T01:34:22;8.90;76.40
38684;DHT22;24910;53.248;-6.134;2023-03-01T01:36:53;8.90;76.30
38684;DHT22;24910;53.248;-6.134;2023-03-01T01:39:23;8.90;76.10
38684;DHT22;24910;53.248;-6.134;2023-03-01T01:41:53;8.90;76.00
38684;DHT22;24910;53.248;-6.134;2023-03-01T01:44:24;8.90;75.90
38684;DHT22;24910;53.248;-6.134;2023-03-01T01:46:55;8.90;75.90
38684;DHT22;24910;53.248;-6.134;2023-03-01T01:49:29;8.90;75.70
38684;DHT22;24910;53.248;-6.134;2023-03-01T01:52:08;8.90;75.70
38684;DHT22;24910;53.248;-6.134;2023-03-01T01:54:42;8.90;75.60
38684;DHT22;24910;53.248;-6.134;2023-03-01T01:57:20;8.90;75.60
38684;DHT22;24910;53.248;-6.134;2023-03-01T01:59:52;8.90;75.70
38684;DHT22;24910;53.248;-6.134;2023-03-01T02:02:22;8.90;75.80
38684;DHT22;24910;53.248;-6.134;2023-03-01T02:04:56;9.00;76.00
38684;DHT22;24910;53.248;-6.134;2023-03-01T02:07:29;8.90;76.20
38684;DHT22;24910;53.248;-6.134;2023-03-01T02:09:59;8.90;76.50
38684;DHT22;24910;53.248;-6.134;2023-03-01T02:12:29;8.90;76.70
38684;DHT22;24910;53.248;-6.134;2023-03-01T02:14:59;8.90;76.80
38684;DHT22;24910;53.248;-6.134;2023-03-01T02:17:28;9.00;77.10
38684;DHT22;24910;53.248;-6.134;2023-03-01T02:20:12;8.90;77.40
38684;DHT22;24910;53.248;-6.134;2023-03-01T02:22:44;9.00;77.80
38684;DHT22;24910;53.248;-6.134;2023-03-01T02:25:24;9.00;78.20
38684;DHT22;24910;53.248;-6.134;2023-03-01T02:27:59;9.00;78.50
38684;DHT22;24910;53.248;-6.134;2023-03-01T02:30:32;9.00;78.60
38684;DHT22;24910;53.248;-6.134;2023-03-01T02:33:02;9.00;78.70
38684;DHT22;24910;53.248;-6.134;2023-03-01T02:35:35;9.00;78.90
38684;DHT22;24910;53.248;-6.134;2023-03-01T02:38:07;9.00;78.80
38684;DHT22;24910;53.248;-6.134;2023-03-01T02:40:38;9.00;78.90
38684;DHT22;24910;53.248;-6.134;2023-03-01T02:43:08;9.00;79.20
38684;DHT22;24910;53.248;-6.134;2023-03-01T02:45:48;8.90;79.50
38684;DHT22;24910;53.248;-6.134;2023-03-01T02:48:18;8.90;79.80
38684;DHT22;24910;53.248;-6.134;2023-03-01T02:51:02;8.90;80.10
38684;DHT22;24910;53.248;-6.134;2023-03-01T02:53:39;8.90;80.80
38684;DHT22;24910;53.248;-6.134;2023-03-01T02:56:10;8.90;80.80
38684;DHT22;24910;53.248;-6.134;2023-03-01T02:58:42;8.90;81.00
38684;DHT22;24910;53.248;-6.134;2023-03-01T03:01:18;8.90;81.10
38684;DHT22;24910;53.248;-6.134;2023-03-01T03:03:47;8.90;81.50
38684;DHT22;24910;53.248;-6.134;2023-03-01T03:06:17;8.90;81.70
38684;DHT22;24910;53.248;-6.134;2023-03-01T03:08:47;8.90;81.90
38684;DHT22;24910;53.248;-6.134;2023-03-01T03:11:16;8.90;82.00
38684;DHT22;24910;53.248;-6.134;2023-03-01T03:13:47;8.90;82.10
38684;DHT22;24910;53.248;-6.134;2023-03-01T03:16:20;8.90;82.40
38684;DHT22;24910;53.248;-6.134;2023-03-01T03:18:49;8.80;82.50
38684;DHT22;24910;53.248;-6.134;2023-03-01T03:21:19;8.80;82.50
38684;DHT22;24910;53.248;-6.134;2023-03-01T03:23:48;8.80;82.40
38684;DHT22;24910;53.248;-6.134;2023-03-01T03:26:17;8.80;82.40
38684;DHT22;24910;53.248;-6.134;2023-03-01T03:28:46;8.80;82.40
38684;DHT22;24910;53.248;-6.134;2023-03-01T03:31:15;8.80;82.20
38684;DHT22;24910;53.248;-6.134;2023-03-01T03:33:45;8.70;82.00
38684;DHT22;24910;53.248;-6.134;2023-03-01T03:36:16;8.80;82.00
38684;DHT22;24910;53.248;-6.134;2023-03-01T03:38:45;8.80;81.90
38684;DHT22;24910;53.248;-6.134;2023-03-01T03:41:15;8.80;81.70
38684;DHT22;24910;53.248;-6.134;2023-03-01T03:43:44;8.80;81.60
38684;DHT22;24910;53.248;-6.134;2023-03-01T03:46:13;8.80;81.50
38684;DHT22;24910;53.248;-6.134;2023-03-01T03:48:45;8.80;81.40
38684;DHT22;24910;53.248;-6.134;2023-03-01T03:51:17;8.80;81.30
38684;DHT22;24910;53.248;-6.134;2023-03-01T03:53:46;8.80;81.20
38684;DHT22;24910;53.248;-6.134;2023-03-01T03:56:15;8.70;81.20
38684;DHT22;24910;53.248;-6.134;2023-03-01T03:58:44;8.70;81.20
38684;DHT22;24910;53.248;-6.134;2023-03-01T04:01:13;8.70;81.10
38684;DHT22;24910;53.248;-6.134;2023-03-01T04:03:42;8.70;81.20
38684;DHT22;24910;53.248;-6.134;2023-03-01T04:06:15;8.70;81.20
38684;DHT22;24910;53.248;-6.134;2023-03-01T04:08:44;8.70;81.10
38684;DHT22;24910;53.248;-6.134;2023-03-01T04:11:13;8.70;81.00
38684;DHT22;24910;53.248;-6.134;2023-03-01T04:13:57;8.70;80.90
38684;DHT22;24910;53.248;-6.134;2023-03-01T04:16:26;8.70;80.80
38684;DHT22;24910;53.248;-6.134;2023-03-01T04:18:56;8.70;80.80
38684;DHT22;24910;53.248;-6.134;2023-03-01T04:21:28;8.70;80.80
38684;DHT22;24910;53.248;-6.134;2023-03-01T04:23:57;8.70;80.80
38684;DHT22;24910;53.248;-6.134;2023-03-01T04:26:26;8.60;80.70
38684;DHT22;24910;53.248;-6.134;2023-03-01T04:28:57;8.70;80.80
38684;DHT22;24910;53.248;-6.134;2023-03-01T04:31:26;8.60;80.80
38684;DHT22;24910;53.248;-6.134;2023-03-01T04:33:56;8.70;80.80
38684;DHT22;24910;53.248;-6.134;2023-03-01T04:36:28;8.60;80.70
38684;DHT22;24910;53.248;-6.134;2023-03-01T04:38:58;8.60;80.80
38684;DHT22;24910;53.248;-6.134;2023-03-01T04:41:27;8.60;80.80
38684;DHT22;24910;53.248;-6.134;2023-03-01T04:43:56;8.60;80.80
38684;DHT22;24910;53.248;-6.134;2023-03-01T04:46:27;8.60;80.80
38684;DHT22;24910;53.248;-6.134;2023-03-01T04:48:57;8.70;80.90
38684;DHT22;24910;53.248;-6.134;2023-03-01T04:51:27;8.70;80.70
38684;DHT22;24910;53.248;-6.134;2023-03-01T04:53:56;8.60;80.60
38684;DHT22;24910;53.248;-6.134;2023-03-01T04:56:25;8.60;80.60
38684;DHT22;24910;53.248;-6.134;2023-03-01T04:58:55;8.60;80.50
38684;DHT22;24910;53.248;-6.134;2023-03-01T05:01:24;8.70;80.50
38684;DHT22;24910;53.248;-6.134;2023-03-01T05:03:53;8.70;80.30
38684;DHT22;24910;53.248;-6.134;2023-03-01T05:06:22;8.70;80.10
38684;DHT22;24910;53.248;-6.134;2023-03-01T05:08:53;8.60;79.90
38684;DHT22;24910;53.248;-6.134;2023-03-01T05:11:22;8.60;79.80
38684;DHT22;24910;53.248;-6.134;2023-03-01T05:13:51;8.60;79.70
38684;DHT22;24910;53.248;-6.134;2023-03-01T05:16:22;8.60;79.60
38684;DHT22;24910;53.248;-6.134;2023-03-01T05:18:51;8.60;79.40
38684;DHT22;24910;53.248;-6.134;2023-03-01T05:21:20;8.60;79.30
38684;DHT22;24910;53.248;-6.134;2023-03-01T05:23:50;8.60;79.30
38684;DHT22;24910;53.248;-6.134;2023-03-01T05:26:20;8.60;79.50
38684;DHT22;24910;53.248;-6.134;2023-03-01T05:28:55;8.60;79.50
38684;DHT22;24910;53.248;-6.134;2023-03-01T05:31:27;8.60;79.60
38684;DHT22;24910;53.248;-6.134;2023-03-01T05:33:58;8.50;79.70
38684;DHT22;24910;53.248;-6.134;2023-03-01T05:36:27;8.60;79.90
38684;DHT22;24910;53.248;-6.134;2023-03-01T05:38:57;8.60;79.90
38684;DHT22;24910;53.248;-6.134;2023-03-01T05:41:27;8.50;79.80
38684;DHT22;24910;53.248;-6.134;2023-03-01T05:43:56;8.50;79.80
38684;DHT22;24910;53.248;-6.134;2023-03-01T05:46:25;8.60;79.80
38684;DHT22;24910;53.248;-6.134;2023-03-01T05:48:56;8.60;79.80
38684;DHT22;24910;53.248;-6.134;2023-03-01T05:51:25;8.60;79.80
38684;DHT22;24910;53.248;-6.134;2023-03-01T05:53:54;8.60;79.80
38684;DHT22;24910;53.248;-6.134;2023-03-01T05:56:23;8.60;80.00
38684;DHT22;24910;53.248;-6.134;2023-03-01T05:58:53;8.60;80.50
38684;DHT22;24910;53.248;-6.134;2023-03-01T06:01:22;8.60;81.00
38684;DHT22;24910;53.248;-6.134;2023-03-01T06:03:51;8.60;81.30
38684;DHT22;24910;53.248;-6.134;2023-03-01T06:06:20;8.60;81.90
38684;DHT22;24910;53.248;-6.134;2023-03-01T06:08:49;8.50;82.20
38684;DHT22;24910;53.248;-6.134;2023-03-01T06:11:19;8.50;82.50
38684;DHT22;24910;53.248;-6.134;2023-03-01T06:13:48;8.50;82.80
38684;DHT22;24910;53.248;-6.134;2023-03-01T06:16:18;8.50;83.00
38684;DHT22;24910;53.248;-6.134;2023-03-01T06:18:47;8.40;83.30
38684;DHT22;24910;53.248;-6.134;2023-03-01T06:21:16;8.40;83.40
38684;DHT22;24910;53.248;-6.134;2023-03-01T06:23:45;8.40;83.40
38684;DHT22;24910;53.248;-6.134;2023-03-01T06:26:14;8.40;83.50
38684;DHT22;24910;53.248;-6.134;2023-03-01T06:28:44;8.50;83.50
38684;DHT22;24910;53.248;-6.134;2023-03-01T06:31:14;8.50;83.50
38684;DHT22;24910;53.248;-6.134;2023-03-01T06:33:44;8.50;83.40
38684;DHT22;24910;53.248;-6.134;2023-03-01T06:36:13;8.50;83.20
38684;DHT22;24910;53.248;-6.134;2023-03-01T06:38:46;8.50;83.00
38684;DHT22;24910;53.248;-6.134;2023-03-01T06:41:15;8.60;82.90
38684;DHT22;24910;53.248;-6.134;2023-03-01T06:43:44;8.60;82.80
38684;DHT22;24910;53.248;-6.134;2023-03-01T06:46:13;8.70;82.60
38684;DHT22;24910;53.248;-6.134;2023-03-01T06:48:43;8.70;82.60
38684;DHT22;24910;53.248;-6.134;2023-03-01T06:51:13;8.60;82.90
38684;DHT22;24910;53.248;-6.134;2023-03-01T06:53:41;8.60;83.00
38684;DHT22;24910;53.248;-6.134;2023-03-01T06:56:11;8.60;83.10
38684;DHT22;24910;53.248;-6.134;2023-03-01T06:58:40;8.60;83.20
38684;DHT22;24910;53.248;-6.134;2023-03-01T07:01:09;8.50;83.30
38684;DHT22;24910;53.248;-6.134;2023-03-01T07:03:38;8.50;83.50
38684;DHT22;24910;53.248;-6.134;2023-03-01T07:06:09;8.40;83.80
38684;DHT22;24910;53.248;-6.134;2023-03-01T07:08:38;8.40;84.10
38684;DHT22;24910;53.248;-6.134;2023-03-01T07:11:08;8.40;84.20
38684;DHT22;24910;53.248;-6.134;2023-03-01T07:13:37;8.40;84.30
38684;DHT22;24910;53.248;-6.134;2023-03-01T07:16:07;8.40;84.40
38684;DHT22;24910;53.248;-6.134;2023-03-01T07:18:36;8.40;84.50
38684;DHT22;24910;53.248;-6.134;2023-03-01T07:21:07;8.40;84.50
38684;DHT22;24910;53.248;-6.134;2023-03-01T07:23:40;8.40;84.70
38684;DHT22;24910;53.248;-6.134;2023-03-01T07:26:09;8.40;84.80
38684;DHT22;24910;53.248;-6.134;2023-03-01T07:28:39;8.40;85.00
38684;DHT22;24910;53.248;-6.134;2023-03-01T07:31:08;8.40;85.00
38684;DHT22;24910;53.248;-6.134;2023-03-01T07:33:40;8.40;85.10
38684;DHT22;24910;53.248;-6.134;2023-03-01T07:36:09;8.40;85.00
38684;DHT22;24910;53.248;-6.134;2023-03-01T07:38:39;8.40;84.90
38684;DHT22;24910;53.248;-6.134;2023-03-01T07:41:08;8.40;84.70
38684;DHT22;24910;53.248;-6.134;2023-03-01T07:43:37;8.40;84.70
38684;DHT22;24910;53.248;-6.134;2023-03-01T07:46:07;8.40;84.40
38684;DHT22;24910;53.248;-6.134;2023-03-01T07:48:36;8.30;84.30
38684;DHT22;24910;53.248;-6.134;2023-03-01T07:51:06;8.30;84.30
38684;DHT22;24910;53.248;-6.134;2023-03-01T07:53:35;8.40;84.20
38684;DHT22;24910;53.248;-6.134;2023-03-01T07:56:08;8.40;84.20
38684;DHT22;24910;53.248;-6.134;2023-03-01T07:58:39;8.40;84.10
38684;DHT22;24910;53.248;-6.134;2023-03-01T08:01:10;8.40;84.10
38684;DHT22;24910;53.248;-6.134;2023-03-01T08:03:40;8.40;83.90
38684;DHT22;24910;53.248;-6.134;2023-03-01T08:06:11;8.40;83.80
38684;DHT22;24910;53.248;-6.134;2023-03-01T08:08:41;8.40;83.70
38684;DHT22;24910;53.248;-6.134;2023-03-01T08:11:12;8.30;83.70
38684;DHT22;24910;53.248;-6.134;2023-03-01T08:13:42;8.40;83.50
38684;DHT22;24910;53.248;-6.134;2023-03-01T08:16:13;8.40;83.40
38684;DHT22;24910;53.248;-6.134;2023-03-01T08:18:43;8.40;83.40
38684;DHT22;24910;53.248;-6.134;2023-03-01T08:21:13;8.40;83.40
38684;DHT22;24910;53.248;-6.134;2023-03-01T08:23:43;8.40;83.50
38684;DHT22;24910;53.248;-6.134;2023-03-01T08:26:15;8.30;83.70
38684;DHT22;24910;53.248;-6.134;2023-03-01T08:28:48;8.30;83.80
38684;DHT22;24910;53.248;-6.134;2023-03-01T08:31:19;8.30;84.00
38684;DHT22;24910;53.248;-6.134;2023-03-01T08:33:51;8.30;84.30
38684;DHT22;24910;53.248;-6.134;2023-03-01T08:36:24;8.20;84.50
38684;DHT22;24910;53.248;-6.134;2023-03-01T08:38:53;8.20;84.70
38684;DHT22;24910;53.248;-6.134;2023-03-01T08:41:25;8.10;84.90
38684;DHT22;24910;53.248;-6.134;2023-03-01T08:43:54;8.10;85.20
38684;DHT22;24910;53.248;-6.134;2023-03-01T08:46:27;8.10;86.20
38684;DHT22;24910;53.248;-6.134;2023-03-01T08:48:57;8.20;85.50
38684;DHT22;24910;53.248;-6.134;2023-03-01T08:51:26;8.10;85.50
38684;DHT22;24910;53.248;-6.134;2023-03-01T08:53:58;8.10;85.50
38684;DHT22;24910;53.248;-6.134;2023-03-01T08:56:29;8.10;85.70
38684;DHT22;24910;53.248;-6.134;2023-03-01T08:58:58;8.10;85.70
38684;DHT22;24910;53.248;-6.134;2023-03-01T09:01:28;8.10;85.70
38684;DHT22;24910;53.248;-6.134;2023-03-01T09:03:59;8.20;85.70
38684;DHT22;24910;53.248;-6.134;2023-03-01T09:06:30;8.20;85.80
38684;DHT22;24910;53.248;-6.134;2023-03-01T09:09:00;8.20;85.90
38684;DHT22;24910;53.248;-6.134;2023-03-01T09:11:31;8.30;86.00
38684;DHT22;24910;53.248;-6.134;2023-03-01T09:14:01;8.30;86.10
38684;DHT22;24910;53.248;-6.134;2023-03-01T09:16:33;8.30;86.40
38684;DHT22;24910;53.248;-6.134;2023-03-01T09:19:04;8.20;86.30
38684;DHT22;24910;53.248;-6.134;2023-03-01T09:21:33;8.20;86.30
38684;DHT22;24910;53.248;-6.134;2023-03-01T09:24:12;8.10;86.30
38684;DHT22;24910;53.248;-6.134;2023-03-01T09:26:43;8.10;86.50
38684;DHT22;24910;53.248;-6.134;2023-03-01T09:29:16;8.20;86.50
38684;DHT22;24910;53.248;-6.134;2023-03-01T09:31:46;8.20;86.50
38684;DHT22;24910;53.248;-6.134;2023-03-01T09:34:15;8.30;86.60
38684;DHT22;24910;53.248;-6.134;2023-03-01T09:36:50;8.30;86.60
38684;DHT22;24910;53.248;-6.134;2023-03-01T09:39:19;8.30;86.60
38684;DHT22;24910;53.248;-6.134;2023-03-01T09:41:57;8.40;86.70
38684;DHT22;24910;53.248;-6.134;2023-03-01T09:44:35;8.40;86.90
38684;DHT22;24910;53.248;-6.134;2023-03-01T09:47:08;8.40;86.90
38684;DHT22;24910;53.248;-6.134;2023-03-01T09:49:41;8.50;87.00
38684;DHT22;24910;53.248;-6.134;2023-03-01T09:52:23;8.50;87.00
38684;DHT22;24910;53.248;-6.134;2023-03-01T09:54:55;8.50;87.10
38684;DHT22;24910;53.248;-6.134;2023-03-01T09:57:35;8.50;87.10
38684;DHT22;24910;53.248;-6.134;2023-03-01T10:00:20;8.40;87.10
38684;DHT22;24910;53.248;-6.134;2023-03-01T10:02:58;8.40;87.10
38684;DHT22;24910;53.248;-6.134;2023-03-01T10:05:35;8.40;87.00
38684;DHT22;24910;53.248;-6.134;2023-03-01T10:08:20;8.40;87.00
38684;DHT22;24910;53.248;-6.134;2023-03-01T10:10:53;8.40;87.10
38684;DHT22;24910;53.248;-6.134;2023-03-01T10:13:28;8.40;87.20
38684;DHT22;24910;53.248;-6.134;2023-03-01T10:16:01;8.40;87.30
38684;DHT22;24910;53.248;-6.134;2023-03-01T10:18:33;8.40;87.40
38684;DHT22;24910;53.248;-6.134;2023-03-01T10:21:13;8.40;87.30
38684;DHT22;24910;53.248;-6.134;2023-03-01T10:23:43;8.40;87.10
38684;DHT22;24910;53.248;-6.134;2023-03-01T10:26:32;8.30;86.70
38684;DHT22;24910;53.248;-6.134;2023-03-01T10:29:10;8.30;86.60
38684;DHT22;24910;53.248;-6.134;2023-03-01T10:31:42;8.30;86.40
38684;DHT22;24910;53.248;-6.134;2023-03-01T10:34:14;8.30;86.40
38684;DHT22;24910;53.248;-6.134;2023-03-01T10:36:45;8.30;86.10
38684;DHT22;24910;53.248;-6.134;2023-03-01T10:39:18;8.40;86.00
38684;DHT22;24910;53.248;-6.134;2023-03-01T10:41:55;8.40;85.50
38684;DHT22;24910;53.248;-6.134;2023-03-01T10:44:40;8.40;85.20
38684;DHT22;24910;53.248;-6.134;2023-03-01T10:47:16;8.40;84.80
38684;DHT22;24910;53.248;-6.134;2023-03-01T10:49:59;8.40;84.60
38684;DHT22;24910;53.248;-6.134;2023-03-01T10:52:31;8.40;84.50
38684;DHT22;24910;53.248;-6.134;2023-03-01T10:55:04;8.40;84.50
38684;DHT22;24910;53.248;-6.134;2023-03-01T10:57:50;8.50;84.60
38684;DHT22;24910;53.248;-6.134;2023-03-01T11:00:46;8.50;84.60
38684;DHT22;24910;53.248;-6.134;2023-03-01T11:03:17;8.60;84.50
38684;DHT22;24910;53.248;-6.134;2023-03-01T11:05:55;8.60;84.40
38684;DHT22;24910;53.248;-6.134;2023-03-01T11:08:36;8.70;84.10
38684;DHT22;24910;53.248;-6.134;2023-03-01T11:11:22;8.70;84.00
38684;DHT22;24910;53.248;-6.134;2023-03-01T11:13:55;8.70;84.00
38684;DHT22;24910;53.248;-6.134;2023-03-01T11:16:32;8.70;83.90
38684;DHT22;24910;53.248;-6.134;2023-03-01T11:19:18;8.80;83.80
38684;DHT22;24910;53.248;-6.134;2023-03-01T11:21:55;8.80;83.80
38684;DHT22;24910;53.248;-6.134;2023-03-01T11:24:31;8.80;83.60
38684;DHT22;24910;53.248;-6.134;2023-03-01T11:27:04;8.80;83.50
38684;DHT22;24910;53.248;-6.134;2023-03-01T11:29:38;8.80;83.50
38684;DHT22;24910;53.248;-6.134;2023-03-01T11:32:17;8.80;83.50
38684;DHT22;24910;53.248;-6.134;2023-03-01T11:34:53;8.90;83.50
38684;DHT22;24910;53.248;-6.134;2023-03-01T11:37:32;9.00;83.00
38684;DHT22;24910;53.248;-6.134;2023-03-01T11:40:13;9.20;82.60
38684;DHT22;24910;53.248;-6.134;2023-03-01T11:43:06;9.30;82.00
38684;DHT22;24910;53.248;-6.134;2023-03-01T11:45:52;9.50;81.50
38684;DHT22;24910;53.248;-6.134;2023-03-01T11:48:37;9.70;81.20
38684;DHT22;24910;53.248;-6.134;2023-03-01T11:51:23;9.70;80.70
38684;DHT22;24910;53.248;-6.134;2023-03-01T11:54:09;9.80;80.60
38684;DHT22;24910;53.248;-6.134;2023-03-01T11:56:46;9.80;80.40
38684;DHT22;24910;53.248;-6.134;2023-03-01T11:59:36;9.80;80.30
38684;DHT22;24910;53.248;-6.134;2023-03-01T12:02:27;9.70;80.00
38684;DHT22;24910;53.248;-6.134;2023-03-01T12:05:20;9.60;79.90
38684;DHT22;24910;53.248;-6.134;2023-03-01T12:07:58;9.60;79.90
38684;DHT22;24910;53.248;-6.134;2023-03-01T12:10:35;9.50;79.80
38684;DHT22;24910;53.248;-6.134;2023-03-01T12:13:29;9.50;80.00
38684;DHT22;24910;53.248;-6.134;2023-03-01T12:16:27;9.60;80.00
38684;DHT22;24910;53.248;-6.134;2023-03-01T12:19:20;9.70;79.50
38684;DHT22;24910;53.248;-6.134;2023-03-01T12:22:12;9.80;79.10
38684;DHT22;24910;53.248;-6.134;2023-03-01T12:31:01;9.90;78.30
38684;DHT22;24910;53.248;-6.134;2023-03-01T12:33:40;9.90;78.50
38684;DHT22;24910;53.248;-6.134;2023-03-01T12:36:27;9.80;78.80
38684;DHT22;24910;53.248;-6.134;2023-03-01T12:39:09;9.80;79.30
38684;DHT22;24910;53.248;-6.134;2023-03-01T12:41:48;9.70;79.50
38684;DHT22;24910;53.248;-6.134;2023-03-01T12:44:35;9.70;79.70
38684;DHT22;24910;53.248;-6.134;2023-03-01T12:47:25;9.80;79.80
38684;DHT22;24910;53.248;-6.134;2023-03-01T12:49:59;9.80;79.70
38684;DHT22;24910;53.248;-6.134;2023-03-01T12:52:35;9.70;79.60
38684;DHT22;24910;53.248;-6.134;2023-03-01T12:55:25;9.60;79.60
38684;DHT22;24910;53.248;-6.134;2023-03-01T12:58:04;9.60;79.80
38684;DHT22;24910;53.248;-6.134;2023-03-01T13:00:40;9.60;79.90
38684;DHT22;24910;53.248;-6.134;2023-03-01T13:03:22;9.60;79.70
38684;DHT22;24910;53.248;-6.134;2023-03-01T13:06:04;9.70;79.60
38684;DHT22;24910;53.248;-6.134;2023-03-01T13:08:40;9.70;79.30
38684;DHT22;24910;53.248;-6.134;2023-03-01T13:11:16;9.70;78.90
38684;DHT22;24910;53.248;-6.134;2023-03-01T13:13:46;9.60;78.60
38684;DHT22;24910;53.248;-6.134;2023-03-01T13:16:40;9.60;78.50
38684;DHT22;24910;53.248;-6.134;2023-03-01T13:19:15;9.60;78.40
38684;DHT22;24910;53.248;-6.134;2023-03-01T13:21:45;9.70;78.20
38684;DHT22;24910;53.248;-6.134;2023-03-01T13:24:25;9.70;78.20
38684;DHT22;24910;53.248;-6.134;2023-03-01T13:27:22;9.70;78.20
38684;DHT22;24910;53.248;-6.134;2023-03-01T13:29:57;9.70;78.00
38684;DHT22;24910;53.248;-6.134;2023-03-01T13:32:32;9.60;77.90
38684;DHT22;24910;53.248;-6.134;2023-03-01T13:35:40;9.50;78.00
38684;DHT22;24910;53.248;-6.134;2023-03-01T13:38:39;9.50;78.00
38684;DHT22;24910;53.248;-6.134;2023-03-01T13:41:14;9.40;78.20
38684;DHT22;24910;53.248;-6.134;2023-03-01T13:43:46;9.40;78.50
38684;DHT22;24910;53.248;-6.134;2023-03-01T13:46:18;9.40;78.50
38684;DHT22;24910;53.248;-6.134;2023-03-01T13:48:51;9.50;78.50
38684;DHT22;24910;53.248;-6.134;2023-03-01T13:51:24;9.50;78.20
38684;DHT22;24910;53.248;-6.134;2023-03-01T13:53:57;9.50;78.20
38684;DHT22;24910;53.248;-6.134;2023-03-01T13:56:36;9.50;78.30
38684;DHT22;24910;53.248;-6.134;2023-03-01T13:59:14;9.50;78.70
38684;DHT22;24910;53.248;-6.134;2023-03-01T14:01:44;9.50;78.90
38684;DHT22;24910;53.248;-6.134;2023-03-01T14:04:22;9.50;79.00
38684;DHT22;24910;53.248;-6.134;2023-03-01T14:07:09;9.50;79.10
38684;DHT22;24910;53.248;-6.134;2023-03-01T14:09:41;9.40;79.20
38684;DHT22;24910;53.248;-6.134;2023-03-01T14:12:20;9.40;80.10
38684;DHT22;24910;53.248;-6.134;2023-03-01T14:15:01;9.50;79.20
38684;DHT22;24910;53.248;-6.134;2023-03-01T14:17:43;9.50;79.00
38684;DHT22;24910;53.248;-6.134;2023-03-01T14:20:18;9.50;78.90
38684;DHT22;24910;53.248;-6.134;2023-03-01T14:22:49;9.60;78.70
38684;DHT22;24910;53.248;-6.134;2023-03-01T14:25:29;9.50;78.20
38684;DHT22;24910;53.248;-6.134;2023-03-01T14:28:03;9.50;78.20
38684;DHT22;24910;53.248;-6.134;2023-03-01T14:30:37;9.40;78.20
38684;DHT22;24910;53.248;-6.134;2023-03-01T14:33:19;9.50;78.40
38684;DHT22;24910;53.248;-6.134;2023-03-01T14:35:54;9.40;78.30
38684;DHT22;24910;53.248;-6.134;2023-03-01T14:38:30;9.30;78.30
38684;DHT22;24910;53.248;-6.134;2023-03-01T14:41:03;9.40;78.50
38684;DHT22;24910;53.248;-6.134;2023-03-01T14:43:34;9.40;78.20
38684;DHT22;24910;53.248;-6.134;2023-03-01T14:46:05;9.40;78.00
38684;DHT22;24910;53.248;-6.134;2023-03-01T14:48:34;9.50;78.00
38684;DHT22;24910;53.248;-6.134;2023-03-01T14:51:05;9.50;77.70
38684;DHT22;24910;53.248;-6.134;2023-03-01T14:53:39;9.50;77.50
38684;DHT22;24910;53.248;-6.134;2023-03-01T14:56:18;9.50;77.60
38684;DHT22;24910;53.248;-6.134;2023-03-01T14:58:51;9.40;78.40
38684;DHT22;24910;53.248;-6.134;2023-03-01T15:01:22;9.40;79.00
38684;DHT22;24910;53.248;-6.134;2023-03-01T15:03:51;9.30;79.40
38684;DHT22;24910;53.248;-6.134;2023-03-01T15:06:22;9.30;80.00
38684;DHT22;24910;53.248;-6.134;2023-03-01T15:08:53;9.30;80.40
38684;DHT22;24910;53.248;-6.134;2023-03-01T15:11:27;9.30;80.80
38684;DHT22;24910;53.248;-6.134;2023-03-01T15:14:00;9.20;81.00
38684;DHT22;24910;53.248;-6.134;2023-03-01T15:16:32;9.30;81.20
38684;DHT22;24910;53.248;-6.134;2023-03-01T15:19:03;9.40;81.20
38684;DHT22;24910;53.248;-6.134;2023-03-01T15:21:34;9.50;80.90
38684;DHT22;24910;53.248;-6.134;2023-03-01T15:24:07;9.50;80.90
38684;DHT22;24910;53.248;-6.134;2023-03-01T15:26:52;9.30;80.70
38684;DHT22;24910;53.248;-6.134;2023-03-01T15:29:24;9.30;80.80
38684;DHT22;24910;53.248;-6.134;2023-03-01T15:32:01;9.20;81.00
38684;DHT22;24910;53.248;-6.134;2023-03-01T15:34:34;9.20;81.00
38684;DHT22;24910;53.248;-6.134;2023-03-01T15:37:06;9.20;81.00
38684;DHT22;24910;53.248;-6.134;2023-03-01T15:39:38;9.20;81.10
38684;DHT22;24910;53.248;-6.134;2023-03-01T15:42:10;9.10;81.00
38684;DHT22;24910;53.248;-6.134;2023-03-01T15:44:40;9.10;81.10
38684;DHT22;24910;53.248;-6.134;2023-03-01T15:47:26;9.10;81.00
38684;DHT22;24910;53.248;-6.134;2023-03-01T15:49:56;9.10;80.90
38684;DHT22;24910;53.248;-6.134;2023-03-01T15:52:28;9.00;80.80
38684;DHT22;24910;53.248;-6.134;2023-03-01T15:55:00;9.00;80.50
38684;DHT22;24910;53.248;-6.134;2023-03-01T15:57:30;9.00;80.40
38684;DHT22;24910;53.248;-6.134;2023-03-01T15:59:59;9.10;80.40
38684;DHT22;24910;53.248;-6.134;2023-03-01T16:02:32;9.10;80.10
38684;DHT22;24910;53.248;-6.134;2023-03-01T16:05:04;9.10;80.00
38684;DHT22;24910;53.248;-6.134;2023-03-01T16:07:33;9.10;79.80
38684;DHT22;24910;53.248;-6.134;2023-03-01T16:10:07;9.20;79.80
38684;DHT22;24910;53.248;-6.134;2023-03-01T16:12:37;9.10;79.60
38684;DHT22;24910;53.248;-6.134;2023-03-01T16:15:13;9.20;79.60